createdAt,value
2023-10-05T00:01:18.878Z,9.80
2023-10-05T00:03:48.586Z,9.80
2023-10-05T00:06:17.502Z,9.80
2023-10-05T00:08:49.232Z,9.80
2023-10-05T00:11:37.606Z,9.80
2023-10-05T00:14:09.058Z,9.70
2023-10-05T00:16:39.473Z,9.70
2023-10-05T00:19:12.980Z,9.80
2023-10-05T00:21:58.176Z,9.80
2023-10-05T00:24:28.708Z,9.90
2023-10-05T00:26:57.605Z,9.90
2023-10-05T00:29:45.605Z,9.90
2023-10-05T00:32:16.983Z,10.00
2023-10-05T00:34:48.616Z,10.10
2023-10-05T00:37:19.146Z,10.10
2023-10-05T00:39:56.601Z,10.10
2023-10-05T00:42:25.503Z,10.10
2023-10-05T00:44:52.970Z,10.10
2023-10-05T00:47:20.489Z,10.10
2023-10-05T00:49:53.355Z,10.10
2023-10-05T00:52:27.354Z,10.00
2023-10-05T00:54:57.930Z,10.00
2023-10-05T00:57:28.765Z,10.00
2023-10-05T01:00:05.233Z,10.00
2023-10-05T01:02:40.260Z,10.00
2023-10-05T01:05:17.149Z,10.00
2023-10-05T01:07:45.431Z,10.00
2023-10-05T01:10:25.211Z,10.00
2023-10-05T01:12:57.462Z,9.90
2023-10-05T01:15:32.320Z,9.90
2023-10-05T01:18:01.471Z,9.90
2023-10-05T01:20:30.429Z,9.90
2023-10-05T01:23:02.898Z,9.80
2023-10-05T01:25:30.555Z,9.80
2023-10-05T01:27:58.050Z,9.70
2023-10-05T01:30:25.865Z,9.70
2023-10-05T01:32:55.622Z,9.70
2023-10-05T01:35:24.640Z,9.80
2023-10-05T01:37:55.076Z,9.70
2023-10-05T01:40:26.843Z,9.70
2023-10-05T01:42:54.972Z,9.60
2023-10-05T01:45:35.161Z,9.50
2023-10-05T01:48:07.004Z,9.50
2023-10-05T01:50:34.434Z,9.60
2023-10-05T01:53:07.872Z,9.50
2023-10-05T01:55:37.279Z,9.40
2023-10-05T01:58:25.567Z,9.30
2023-10-05T02:00:53.478Z,9.20
2023-10-05T02:03:25.276Z,9.20
2023-10-05T02:05:58.082Z,9.20
2023-10-05T02:08:26.656Z,9.20
2023-10-05T02:10:54.252Z,9.20
2023-10-05T02:13:24.815Z,9.10
2023-10-05T02:15:57.167Z,9.10
2023-10-05T02:18:28.240Z,9.20
2023-10-05T02:21:18.438Z,9.10
2023-10-05T02:23:48.598Z,9.20
2023-10-05T02:26:26.566Z,9.20
2023-10-05T02:28:56.767Z,9.30
2023-10-05T02:31:24.501Z,9.40
2023-10-05T02:33:53.877Z,9.40
2023-10-05T02:36:32.201Z,9.40
2023-10-05T02:39:02.477Z,9.50
2023-10-05T02:41:45.104Z,9.60
2023-10-05T02:44:29.807Z,9.60
2023-10-05T02:46:57.580Z,9.70
2023-10-05T02:49:26.067Z,9.40
2023-10-05T02:51:54.364Z,9.70
2023-10-05T02:54:23.637Z,9.70
2023-10-05T02:56:55.209Z,9.70
2023-10-05T02:59:27.941Z,10.60
2023-10-05T03:01:56.628Z,9.60
2023-10-05T03:04:24.219Z,9.60
2023-10-05T03:06:54.718Z,9.60
2023-10-05T03:09:23.240Z,9.60
2023-10-05T03:11:53.396Z,9.60
2023-10-05T03:14:22.995Z,9.60
2023-10-05T03:16:55.922Z,9.50
2023-10-05T03:19:23.563Z,9.50
2023-10-05T03:21:53.983Z,9.50
2023-10-05T03:24:26.130Z,9.50
2023-10-05T03:26:54.050Z,9.50
2023-10-05T03:29:23.654Z,9.50
2023-10-05T03:32:06.467Z,9.50
2023-10-05T03:34:34.381Z,9.50
2023-10-05T03:37:09.437Z,9.50
2023-10-05T03:39:41.265Z,9.50
2023-10-05T03:42:08.655Z,9.50
2023-10-05T03:44:38.982Z,9.50
2023-10-05T03:47:07.726Z,9.50
2023-10-05T03:49:37.527Z,9.50
2023-10-05T03:52:08.541Z,9.50
2023-10-05T03:54:36.918Z,9.50
2023-10-05T03:57:13.529Z,9.40
2023-10-05T03:59:41.305Z,9.30
2023-10-05T04:02:08.868Z,9.10
2023-10-05T04:04:37.645Z,9.10
2023-10-05T04:07:05.593Z,9.10
2023-10-05T04:09:34.640Z,9.10
2023-10-05T04:12:02.747Z,9.20
2023-10-05T04:14:30.212Z,9.20
2023-10-05T04:17:09.120Z,9.30
2023-10-05T04:19:36.930Z,9.30
2023-10-05T04:22:05.433Z,10.20
2023-10-05T04:24:34.663Z,9.30
2023-10-05T04:27:02.432Z,9.30
2023-10-05T04:29:29.932Z,9.30
2023-10-05T04:31:58.123Z,9.20
2023-10-05T04:34:30.096Z,9.20
2023-10-05T04:36:58.140Z,9.20
2023-10-05T04:39:33.640Z,9.10
2023-10-05T04:42:27.773Z,9.10
2023-10-05T04:44:55.156Z,9.10
2023-10-05T04:47:23.804Z,9.00
2023-10-05T04:49:51.444Z,9.00
2023-10-05T04:52:24.185Z,9.00
2023-10-05T04:54:59.379Z,9.00
2023-10-05T04:57:36.806Z,8.90
2023-10-05T05:00:23.483Z,8.90
2023-10-05T05:03:07.025Z,8.90
2023-10-05T05:05:54.869Z,8.80
2023-10-05T05:08:23.918Z,8.90
2023-10-05T05:10:51.430Z,8.90
2023-10-05T05:13:23.315Z,8.90
2023-10-05T05:15:52.957Z,8.90
2023-10-05T05:18:21.029Z,8.90
2023-10-05T05:20:48.902Z,8.90
2023-10-05T05:23:18.000Z,9.00
2023-10-05T05:25:50.604Z,9.10
2023-10-05T05:28:18.218Z,9.20
2023-10-05T05:30:45.828Z,9.30
2023-10-05T05:33:13.644Z,9.30
2023-10-05T05:35:41.767Z,9.20
2023-10-05T05:38:12.059Z,9.30
2023-10-05T05:40:40.584Z,10.10
2023-10-05T05:43:12.776Z,9.20
2023-10-05T05:45:44.292Z,9.20
2023-10-05T05:48:16.122Z,9.20
2023-10-05T05:50:45.189Z,9.20
2023-10-05T05:53:12.840Z,9.30
2023-10-05T05:55:54.756Z,9.30
2023-10-05T05:58:22.252Z,9.40
2023-10-05T06:00:50.752Z,9.40
2023-10-05T06:03:19.393Z,9.40
2023-10-05T06:05:49.888Z,9.40
2023-10-05T06:08:18.105Z,9.40
2023-10-05T06:10:48.294Z,9.40
2023-10-05T06:13:18.021Z,9.30
2023-10-05T06:15:45.402Z,9.30
2023-10-05T06:18:14.349Z,9.30
2023-10-05T06:20:42.153Z,9.30
2023-10-05T06:23:13.120Z,9.30
2023-10-05T06:25:42.202Z,9.40
2023-10-05T06:28:09.926Z,8.90
2023-10-05T06:30:38.691Z,9.50
2023-10-05T06:33:09.197Z,9.50
2023-10-05T06:35:37.412Z,9.50
2023-10-05T06:38:05.213Z,9.50
2023-10-05T06:40:34.966Z,9.60
2023-10-05T06:43:07.510Z,9.70
2023-10-05T06:45:37.836Z,9.80
2023-10-05T06:50:38.682Z,10.00
2023-10-05T06:53:08.451Z,10.10
2023-10-05T06:55:35.948Z,10.10
2023-10-05T06:58:05.452Z,10.10
2023-10-05T07:00:34.285Z,10.10
2023-10-05T07:03:08.664Z,10.20
2023-10-05T07:05:36.418Z,10.20
2023-10-05T07:08:08.571Z,10.40
2023-10-05T07:10:37.152Z,10.50
2023-10-05T07:13:10.193Z,10.60
2023-10-05T07:15:58.773Z,10.70
2023-10-05T07:18:28.786Z,10.80
2023-10-05T07:21:00.304Z,10.90
2023-10-05T07:23:30.838Z,11.00
2023-10-05T07:25:59.300Z,11.00
2023-10-05T07:28:27.082Z,10.90
2023-10-05T07:30:57.923Z,10.90
2023-10-05T07:33:25.846Z,10.80
2023-10-05T07:35:55.434Z,10.80
2023-10-05T07:38:27.730Z,10.70
2023-10-05T07:40:58.704Z,10.70
2023-10-05T07:43:29.326Z,10.70
2023-10-05T07:45:58.212Z,10.70
2023-10-05T07:48:27.489Z,10.70
2023-10-05T07:50:54.957Z,10.60
2023-10-05T07:53:27.360Z,10.60
2023-10-05T07:55:55.023Z,10.70
2023-10-05T07:58:24.382Z,10.80
2023-10-05T08:00:52.234Z,10.80
2023-10-05T08:03:20.043Z,10.90
2023-10-05T08:05:47.530Z,11.00
2023-10-05T08:08:16.064Z,11.10
2023-10-05T08:10:44.477Z,11.10
2023-10-05T08:13:12.244Z,11.20
2023-10-05T08:15:42.230Z,11.30
2023-10-05T08:18:10.396Z,11.40
2023-10-05T08:20:38.006Z,10.90
2023-10-05T08:23:05.555Z,11.40
2023-10-05T08:25:32.982Z,11.30
2023-10-05T08:28:02.503Z,11.30
2023-10-05T08:30:34.867Z,11.20
2023-10-05T08:33:05.483Z,11.20
2023-10-05T08:35:42.645Z,11.10
2023-10-05T08:38:17.063Z,11.00
2023-10-05T08:40:47.176Z,10.90
2023-10-05T08:43:18.783Z,10.70
2023-10-05T08:45:53.876Z,11.00
2023-10-05T08:48:37.220Z,11.10
2023-10-05T08:51:14.013Z,11.10
2023-10-05T08:53:59.506Z,11.10
2023-10-05T08:56:28.098Z,11.10
2023-10-05T08:58:58.486Z,11.40
2023-10-05T09:01:27.613Z,11.20
2023-10-05T09:04:25.223Z,11.30
2023-10-05T09:07:10.472Z,11.30
2023-10-05T09:09:53.538Z,11.30
2023-10-05T09:12:51.419Z,11.30
2023-10-05T09:15:23.830Z,11.30
2023-10-05T09:18:00.542Z,11.40
2023-10-05T09:20:33.788Z,11.40
2023-10-05T09:23:06.985Z,11.50
2023-10-05T09:25:41.564Z,11.50
2023-10-05T09:28:16.770Z,11.60
2023-10-05T09:30:58.677Z,11.60
2023-10-05T09:33:29.423Z,11.80
2023-10-05T09:36:07.722Z,11.80
2023-10-05T09:38:39.814Z,11.80
2023-10-05T09:41:11.817Z,11.80
2023-10-05T09:43:45.833Z,11.80
2023-10-05T09:46:17.782Z,12.60
2023-10-05T09:48:47.537Z,11.90
2023-10-05T09:51:15.560Z,11.90
2023-10-05T09:53:45.566Z,11.90
2023-10-05T09:56:19.115Z,11.80
2023-10-05T09:58:54.123Z,11.90
2023-10-05T10:01:23.167Z,12.00
2023-10-05T10:03:53.598Z,12.00
2023-10-05T10:06:29.660Z,12.00
2023-10-05T10:09:09.853Z,11.40
2023-10-05T10:11:37.808Z,12.00
2023-10-05T10:14:10.307Z,12.10
2023-10-05T10:16:43.346Z,12.10
2023-10-05T10:19:24.522Z,12.10
2023-10-05T10:22:09.685Z,12.00
2023-10-05T10:24:38.173Z,12.10
2023-10-05T10:27:15.109Z,12.20
2023-10-05T10:29:47.218Z,12.20
2023-10-05T10:32:24.842Z,12.20
2023-10-05T10:34:58.334Z,12.20
2023-10-05T10:37:38.212Z,12.30
2023-10-05T10:40:14.785Z,12.30
2023-10-05T10:43:07.715Z,12.40
2023-10-05T10:45:44.193Z,12.40
2023-10-05T10:48:31.185Z,12.40
2023-10-05T10:51:02.020Z,12.50
2023-10-05T10:53:33.443Z,12.50
2023-10-05T10:56:06.465Z,12.60
2023-10-05T10:58:35.773Z,12.70
2023-10-05T11:01:05.729Z,13.10
2023-10-05T11:03:40.087Z,12.60
2023-10-05T11:06:11.271Z,12.50
2023-10-05T11:08:42.406Z,12.40
2023-10-05T11:11:20.936Z,12.40
2023-10-05T11:13:58.535Z,12.40
2023-10-05T11:16:51.282Z,12.50
2023-10-05T11:19:32.785Z,12.50
2023-10-05T11:22:06.559Z,12.40
2023-10-05T11:24:41.825Z,12.40
2023-10-05T11:27:16.308Z,12.30
2023-10-05T11:29:44.612Z,12.40
2023-10-05T11:32:22.583Z,12.40
2023-10-05T11:35:17.456Z,12.50
2023-10-05T11:38:01.041Z,12.60
2023-10-05T11:40:33.002Z,12.60
2023-10-05T11:43:07.946Z,12.60
2023-10-05T11:45:36.165Z,12.60
2023-10-05T11:48:13.338Z,12.60
2023-10-05T11:50:57.066Z,12.60
2023-10-05T11:53:26.115Z,12.70
2023-10-05T11:55:54.083Z,12.60
2023-10-05T11:58:24.204Z,12.60
2023-10-05T12:00:52.631Z,12.60
2023-10-05T12:03:22.031Z,12.60
2023-10-05T12:05:49.689Z,12.50
2023-10-05T12:08:17.852Z,12.60
2023-10-05T12:10:46.875Z,12.60
2023-10-05T12:13:17.110Z,12.80
2023-10-05T12:15:45.364Z,12.70
2023-10-05T12:18:14.556Z,12.60
2023-10-05T12:20:45.350Z,12.70
2023-10-05T12:23:16.241Z,12.70
2023-10-05T12:25:46.427Z,12.70
2023-10-05T12:28:15.376Z,12.60
2023-10-05T12:30:49.603Z,12.60
2023-10-05T12:33:17.329Z,12.60
2023-10-05T12:38:26.725Z,12.50
2023-10-05T12:40:55.975Z,12.50
2023-10-05T12:43:23.410Z,12.50
2023-10-05T12:45:51.951Z,12.50
2023-10-05T12:48:19.555Z,12.50
2023-10-05T12:50:47.147Z,12.50
2023-10-05T12:53:14.610Z,12.50
2023-10-05T12:55:42.237Z,12.40
2023-10-05T12:58:11.128Z,12.50
2023-10-05T13:00:43.721Z,12.50
2023-10-05T13:03:15.103Z,12.50
2023-10-05T13:05:48.034Z,12.40
2023-10-05T13:08:17.652Z,12.40
2023-10-05T13:10:48.314Z,12.40
2023-10-05T13:13:19.356Z,12.40
2023-10-05T13:15:48.074Z,12.40
2023-10-05T13:18:21.957Z,12.40
2023-10-05T13:20:54.621Z,12.40
2023-10-05T13:23:24.424Z,12.30
2023-10-05T13:25:53.923Z,12.30
2023-10-05T13:28:28.120Z,12.30
2023-10-05T13:30:57.135Z,12.30
2023-10-05T13:33:45.080Z,12.30
2023-10-05T13:36:15.886Z,12.10
2023-10-05T13:38:44.724Z,12.10
2023-10-05T13:41:15.166Z,12.10
2023-10-05T13:43:46.722Z,12.20
2023-10-05T13:46:17.629Z,12.10
2023-10-05T13:48:50.039Z,12.10
2023-10-05T13:51:18.220Z,12.00
2023-10-05T13:53:49.031Z,12.00
2023-10-05T13:56:16.665Z,11.90
2023-10-05T13:58:49.095Z,11.90
2023-10-05T14:01:25.299Z,11.90
2023-10-05T14:03:55.568Z,11.90
2023-10-05T14:06:29.540Z,11.90
2023-10-05T14:09:06.804Z,11.90
2023-10-05T14:11:35.625Z,11.80
2023-10-05T14:14:05.660Z,11.70
2023-10-05T14:17:06.748Z,11.60
2023-10-05T14:19:35.299Z,11.60
2023-10-05T14:22:04.888Z,11.50
2023-10-05T14:24:36.231Z,11.50
2023-10-05T14:27:06.304Z,12.10
2023-10-05T14:29:37.764Z,11.40
2023-10-05T14:32:06.441Z,11.40
2023-10-05T14:34:35.449Z,11.30
2023-10-05T14:37:07.168Z,11.30
2023-10-05T14:39:35.919Z,11.30
2023-10-05T14:42:05.816Z,11.30
2023-10-05T14:44:37.454Z,11.20
2023-10-05T14:47:06.328Z,11.20
2023-10-05T14:49:34.193Z,11.10
2023-10-05T14:52:02.226Z,11.00
2023-10-05T14:54:30.203Z,11.00
2023-10-05T14:56:57.595Z,11.00
2023-10-05T14:59:25.005Z,11.00
2023-10-05T15:01:52.613Z,10.90
2023-10-05T15:04:22.651Z,10.80
2023-10-05T15:06:50.074Z,10.70
2023-10-05T15:09:22.484Z,10.70
2023-10-05T15:11:50.358Z,10.60
2023-10-05T15:14:18.201Z,10.50
2023-10-05T15:16:45.840Z,10.50
2023-10-05T15:19:13.512Z,10.40
2023-10-05T15:21:43.155Z,10.30
2023-10-05T15:24:12.769Z,10.30
2023-10-05T15:26:42.014Z,10.20
2023-10-05T15:29:14.722Z,10.30
2023-10-05T15:31:45.669Z,10.20
2023-10-05T15:34:14.084Z,10.20
2023-10-05T15:36:42.526Z,10.20
2023-10-05T15:39:11.741Z,10.10
2023-10-05T15:41:39.441Z,10.20
2023-10-05T15:44:09.718Z,10.10
2023-10-05T15:46:37.853Z,10.00
2023-10-05T15:49:06.400Z,9.90
2023-10-05T15:51:34.401Z,9.90
2023-10-05T15:54:03.681Z,9.80
2023-10-05T15:56:31.589Z,9.80
2023-10-05T15:58:59.543Z,9.40
2023-10-05T16:01:28.275Z,9.70
2023-10-05T16:04:04.411Z,9.60
2023-10-05T16:06:33.397Z,9.50
2023-10-05T16:09:02.684Z,9.40
2023-10-05T16:11:30.535Z,9.40
2023-10-05T16:13:59.657Z,9.30
2023-10-05T16:16:27.584Z,9.30
2023-10-05T16:18:54.969Z,9.30
2023-10-05T16:21:27.191Z,9.30
2023-10-05T16:23:55.188Z,9.30
2023-10-05T16:26:22.535Z,9.20
2023-10-05T16:28:51.424Z,9.20
2023-10-05T16:31:19.505Z,9.20
2023-10-05T16:33:47.239Z,9.20
2023-10-05T16:36:14.660Z,9.10
2023-10-05T16:38:43.076Z,9.10
2023-10-05T16:41:11.949Z,9.10
2023-10-05T16:43:39.457Z,9.10
2023-10-05T16:46:10.428Z,9.00
2023-10-05T16:48:37.915Z,9.00
2023-10-05T16:51:07.059Z,9.00
2023-10-05T16:53:34.571Z,8.90
2023-10-05T16:56:02.260Z,8.90
2023-10-05T16:58:30.609Z,8.90
2023-10-05T17:00:58.294Z,8.80
2023-10-05T17:03:27.790Z,8.80
2023-10-05T17:05:57.670Z,8.80
2023-10-05T17:08:25.782Z,8.70
2023-10-05T17:10:54.433Z,8.70
2023-10-05T17:13:21.849Z,8.60
2023-10-05T17:15:49.267Z,8.60
2023-10-05T17:18:18.573Z,8.50
2023-10-05T17:20:46.103Z,8.50
2023-10-05T17:23:13.670Z,8.50
2023-10-05T17:25:42.133Z,8.50
2023-10-05T17:28:09.746Z,8.40
2023-10-05T17:30:37.273Z,8.40
2023-10-05T17:33:06.533Z,8.40
2023-10-05T17:35:39.094Z,8.40
2023-10-05T17:38:11.744Z,8.30
2023-10-05T17:40:40.636Z,8.20
2023-10-05T17:43:10.162Z,8.10
2023-10-05T17:45:43.998Z,8.20
2023-10-05T17:48:11.866Z,8.10
2023-10-05T17:50:42.951Z,8.10
2023-10-05T17:53:11.560Z,8.00
2023-10-05T17:55:40.450Z,8.00
2023-10-05T17:58:07.940Z,7.90
2023-10-05T18:00:37.328Z,7.80
2023-10-05T18:03:05.886Z,7.80
2023-10-05T18:05:39.473Z,7.80
2023-10-05T18:08:08.973Z,7.80
2023-10-05T18:10:41.859Z,7.70
2023-10-05T18:13:09.280Z,7.70
2023-10-05T18:15:36.694Z,7.60
2023-10-05T18:18:04.955Z,7.60
2023-10-05T18:20:36.891Z,7.60
2023-10-05T18:23:06.006Z,7.60
2023-10-05T18:25:33.792Z,7.50
2023-10-05T18:28:02.511Z,7.50
2023-10-05T18:30:31.534Z,7.40
2023-10-05T18:33:00.017Z,7.40
2023-10-05T18:35:27.952Z,7.50
2023-10-05T18:37:55.483Z,7.30
2023-10-05T18:40:23.181Z,7.30
2023-10-05T18:42:50.579Z,7.30
2023-10-05T18:45:18.322Z,7.20
2023-10-05T18:47:45.932Z,7.20
2023-10-05T18:50:14.536Z,7.10
2023-10-05T18:52:42.857Z,7.20
2023-10-05T18:55:10.487Z,7.00
2023-10-05T18:57:37.936Z,7.00
2023-10-05T19:00:11.116Z,7.00
2023-10-05T19:02:39.118Z,7.00
2023-10-05T19:05:14.353Z,7.40
2023-10-05T19:07:42.543Z,6.90
2023-10-05T19:10:15.331Z,7.10
2023-10-05T19:12:43.744Z,6.80
2023-10-05T19:15:12.074Z,6.80
2023-10-05T19:17:40.159Z,6.80
2023-10-05T19:20:08.626Z,6.80
2023-10-05T19:22:36.300Z,6.70
2023-10-05T19:25:04.699Z,6.70
2023-10-05T19:27:35.390Z,6.60
2023-10-05T19:30:02.896Z,6.60
2023-10-05T19:32:30.641Z,6.60
2023-10-05T19:34:58.115Z,6.50
2023-10-05T19:37:25.660Z,6.50
2023-10-05T19:39:53.408Z,6.80
2023-10-05T19:42:20.859Z,6.60
2023-10-05T19:44:48.259Z,6.80
2023-10-05T19:47:22.039Z,6.40
2023-10-05T19:49:51.656Z,6.40
2023-10-05T19:52:19.564Z,6.80
2023-10-05T19:54:47.074Z,7.20
2023-10-05T19:57:14.776Z,7.40
2023-10-05T19:59:42.648Z,6.80
2023-10-05T20:02:10.160Z,6.30
2023-10-05T20:04:39.840Z,6.30
2023-10-05T20:07:08.974Z,6.70
2023-10-05T20:09:37.098Z,6.80
2023-10-05T20:12:05.781Z,6.70
2023-10-05T20:14:33.449Z,6.20
2023-10-05T20:17:01.063Z,6.60
2023-10-05T20:19:28.731Z,6.70
2023-10-05T20:21:56.194Z,6.10
2023-10-05T20:24:26.645Z,6.60
2023-10-05T20:26:54.244Z,6.70
2023-10-05T20:29:22.445Z,6.70
2023-10-05T20:31:50.089Z,7.00
2023-10-05T20:34:23.722Z,7.00
2023-10-05T20:36:54.347Z,6.00
2023-10-05T20:39:23.134Z,6.00
2023-10-05T20:41:55.616Z,7.10
2023-10-05T20:44:28.725Z,7.10
2023-10-05T20:46:58.668Z,5.90
2023-10-05T20:49:26.235Z,6.20
2023-10-05T20:51:55.380Z,6.60
2023-10-05T20:54:22.871Z,6.60
2023-10-05T20:56:50.605Z,5.80
2023-10-05T20:59:17.963Z,5.80
2023-10-05T21:01:45.709Z,6.50
2023-10-05T21:04:13.061Z,5.80
2023-10-05T21:06:40.874Z,6.60
2023-10-05T21:09:10.851Z,6.30
2023-10-05T21:11:38.552Z,6.60
2023-10-05T21:14:07.305Z,6.40
2023-10-05T21:16:37.480Z,5.60
2023-10-05T21:19:06.218Z,6.60
2023-10-05T21:21:35.810Z,6.40
2023-10-05T21:24:05.466Z,5.60
2023-10-05T21:26:32.984Z,5.40
2023-10-05T21:29:00.717Z,5.50
2023-10-05T21:31:28.210Z,6.50
2023-10-05T21:33:57.373Z,5.30
2023-10-05T21:36:25.308Z,6.50
2023-10-05T21:38:53.321Z,5.80
2023-10-05T21:41:22.094Z,5.30
2023-10-05T21:43:50.310Z,5.30
2023-10-05T21:46:19.793Z,6.50
2023-10-05T21:48:47.464Z,5.20
2023-10-05T21:51:16.229Z,5.20
2023-10-05T21:53:45.228Z,5.20
2023-10-05T21:56:12.981Z,5.90
2023-10-05T21:58:40.887Z,5.20
2023-10-05T22:01:08.270Z,5.60
2023-10-05T22:03:36.105Z,5.20
2023-10-05T22:06:07.314Z,5.10
2023-10-05T22:08:35.134Z,5.00
2023-10-05T22:11:04.569Z,5.30
2023-10-05T22:13:33.219Z,5.50
2023-10-05T22:16:00.801Z,5.30
2023-10-05T22:18:28.230Z,5.30
2023-10-05T22:20:55.792Z,5.30
2023-10-05T22:23:23.622Z,5.10
2023-10-05T22:25:51.691Z,5.90
2023-10-05T22:28:19.212Z,6.20
2023-10-05T22:30:46.713Z,5.10
2023-10-05T22:33:14.144Z,6.20
2023-10-05T22:35:43.260Z,5.10
2023-10-05T22:38:11.767Z,5.80
2023-10-05T22:40:40.874Z,5.40
2023-10-05T22:43:12.300Z,6.00
2023-10-05T22:45:40.816Z,5.80
2023-10-05T22:48:08.298Z,5.20
2023-10-05T22:50:39.731Z,5.00
2023-10-05T22:53:07.610Z,5.10
2023-10-05T22:55:38.795Z,5.00
2023-10-05T22:58:06.254Z,5.00
2023-10-05T23:00:35.098Z,5.10
2023-10-05T23:03:02.998Z,5.00
2023-10-05T23:05:30.625Z,4.50
2023-10-05T23:07:58.541Z,5.70
2023-10-05T23:10:26.144Z,4.90
2023-10-05T23:12:53.680Z,5.00
2023-10-05T23:15:21.093Z,4.90
2023-10-05T23:17:48.659Z,4.80
2023-10-05T23:20:25.965Z,5.00
2023-10-05T23:22:54.822Z,4.60
2023-10-05T23:25:27.706Z,5.00
2023-10-05T23:27:56.208Z,5.00
2023-10-05T23:30:25.462Z,4.90
2023-10-05T23:32:54.543Z,4.50
2023-10-05T23:35:22.131Z,4.90
2023-10-05T23:37:57.124Z,4.90
2023-10-05T23:40:29.884Z,4.90
2023-10-05T23:42:57.926Z,4.20
2023-10-05T23:45:25.454Z,4.50
2023-10-05T23:47:55.314Z,4.50
2023-10-05T23:50:27.510Z,4.60
2023-10-05T23:52:58.479Z,4.80
2023-10-05T23:55:27.328Z,4.70
2023-10-05T23:57:55.577Z,4.10
